Time;durP1;ratioP1;P1;durP2;ratioP2;P2;SDS_P1;SDS_P2;PMS_P1;PMS_P2;Temp;Humidity;BMP_temperature;BMP_pressure;BME280_temperature;BME280_humidity;BME280_pressure;Samples;Min_cycle;Max_cycle;Signal;HPM_P1;HPM_P2
2023/08/14 00:01:46;;;;;;;3.67;3.30;;;22.50;99.90;;;;;;4966314;28;20321;-66
2023/08/14 00:04:13;;;;;;;5.68;3.28;;;22.50;99.90;;;;;;4965936;28;20299;-66
2023/08/14 00:06:40;;;;;;;5.55;3.10;;;22.40;99.90;;;;;;4965953;28;20848;-66
2023/08/14 00:09:07;;;;;;;3.40;3.10;;;22.40;99.90;;;;;;4965789;28;20771;-66
2023/08/14 00:11:35;;;;;;;3.10;2.88;;;22.40;99.90;;;;;;4966091;28;20836;-66
2023/08/14 00:14:02;;;;;;;3.70;3.40;;;22.40;99.90;;;;;;4965961;28;20313;-65
2023/08/14 00:16:29;;;;;;;3.25;2.97;;;22.40;99.90;;;;;;4965962;28;21112;-65
2023/08/14 00:18:56;;;;;;;3.15;2.92;;;22.50;99.90;;;;;;4966024;28;20699;-65
2023/08/14 00:21:24;;;;;;;5.65;3.65;;;22.40;99.90;;;;;;4965932;28;20213;-66
2023/08/14 00:23:51;;;;;;;4.97;3.83;;;22.50;99.90;;;;;;4966093;28;20215;-66
2023/08/14 00:26:18;;;;;;;3.42;3.08;;;22.50;99.90;;;;;;4966023;28;20269;-65
2023/08/14 00:28:47;;;;;;;3.47;3.17;;;22.50;99.90;;;;;;4966039;28;20294;-66
2023/08/14 00:31:13;;;;;;;3.80;3.30;;;22.50;99.90;;;;;;4965456;28;20254;-66
2023/08/14 00:33:40;;;;;;;4.60;3.20;;;22.40;99.90;;;;;;4965767;28;20250;-66
2023/08/14 00:36:07;;;;;;;3.60;3.30;;;22.40;99.90;;;;;;4965739;28;20772;-65
2023/08/14 00:38:34;;;;;;;4.03;3.65;;;22.40;99.90;;;;;;4965403;28;20225;-65
2023/08/14 00:41:01;;;;;;;3.63;3.25;;;22.40;99.90;;;;;;4965736;28;20210;-65
2023/08/14 00:43:28;;;;;;;4.18;3.08;;;22.40;99.90;;;;;;4965734;28;20293;-66
2023/08/14 00:45:57;;;;;;;4.10;3.40;;;22.40;99.90;;;;;;4965243;28;20540;-65
2023/08/14 00:48:25;;;;;;;3.63;3.33;;;22.40;99.90;;;;;;4951639;28;20217;-66
2023/08/14 00:50:52;;;;;;;4.25;3.03;;;22.40;99.90;;;;;;4946731;28;20215;-65
2023/08/14 00:53:20;;;;;;;5.00;3.72;;;22.40;99.90;;;;;;4948157;28;20302;-65
2023/08/14 00:55:47;;;;;;;3.72;3.42;;;22.40;99.90;;;;;;4966145;28;20249;-66
2023/08/14 00:58:14;;;;;;;3.78;3.47;;;22.40;99.90;;;;;;4965515;28;20309;-66
2023/08/14 01:00:43;;;;;;;3.65;3.20;;;22.40;99.90;;;;;;4984544;28;20868;-66
2023/08/14 01:03:12;;;;;;;4.50;3.70;;;22.30;99.90;;;;;;4972219;28;20291;-66
2023/08/14 01:05:39;;;;;;;4.07;3.67;;;22.30;99.90;;;;;;4969000;28;20234;-65
2023/08/14 01:08:06;;;;;;;4.25;3.30;;;22.30;99.90;;;;;;4968786;28;20714;-65
2023/08/14 01:10:43;;;;;;;5.88;3.53;;;22.30;99.90;;;;;;4968889;28;20353;-65
2023/08/14 01:13:19;;;;;;;3.58;3.28;;;22.30;99.90;;;;;;4953135;28;20656;-65
2023/08/14 01:15:50;;;;;;;5.40;3.60;;;22.30;99.90;;;;;;4955467;28;20305;-65
2023/08/14 01:18:20;;;;;;;3.55;3.25;;;22.20;99.90;;;;;;4968873;28;20299;-65
2023/08/14 01:20:59;;;;;;;4.53;3.65;;;22.20;99.90;;;;;;4969422;28;20223;-65
2023/08/14 01:23:33;;;;;;;11.40;3.83;;;22.20;99.90;;;;;;4968924;28;20202;-66
2023/08/14 01:26:02;;;;;;;3.53;3.22;;;22.20;99.90;;;;;;4969279;28;20210;-66
2023/08/14 01:28:30;;;;;;;3.67;3.38;;;22.20;99.90;;;;;;4968760;28;21049;-67
2023/08/14 01:30:57;;;;;;;3.72;3.42;;;22.20;99.90;;;;;;4968963;28;20214;-66
2023/08/14 01:33:24;;;;;;;3.70;3.40;;;22.20;99.90;;;;;;4968721;28;20353;-67
2023/08/14 01:35:55;;;;;;;3.67;3.47;;;22.10;99.90;;;;;;4969085;28;20244;-66
2023/08/14 01:38:27;;;;;;;3.55;3.30;;;21.90;99.90;;;;;;4968882;28;20427;-66
2023/08/14 01:41:01;;;;;;;5.18;3.50;;;21.80;99.90;;;;;;4968863;28;20621;-66
2023/08/14 01:43:32;;;;;;;4.78;3.25;;;21.80;99.90;;;;;;4964045;28;20597;-66
2023/08/14 01:45:59;;;;;;;3.72;3.40;;;21.80;99.90;;;;;;4949420;28;20311;-66
2023/08/14 01:48:28;;;;;;;4.70;3.72;;;21.90;99.90;;;;;;4949104;28;20274;-66
2023/08/14 01:50:56;;;;;;;3.55;3.35;;;21.70;99.90;;;;;;4949336;28;20655;-66
2023/08/14 01:53:23;;;;;;;3.35;3.15;;;21.70;99.90;;;;;;4948474;28;20215;-65
2023/08/14 01:55:50;;;;;;;4.80;3.33;;;21.70;99.90;;;;;;4961610;28;20242;-65
2023/08/14 01:58:17;;;;;;;3.63;3.33;;;21.70;99.90;;;;;;4967827;28;20211;-66
2023/08/14 02:00:45;;;;;;;3.67;3.30;;;21.70;99.90;;;;;;4968380;28;20294;-66
2023/08/14 02:03:12;;;;;;;3.67;3.35;;;21.60;99.90;;;;;;4968251;28;20310;-66
2023/08/14 02:05:39;;;;;;;4.00;3.70;;;21.60;99.90;;;;;;4968185;28;20721;-66
2023/08/14 02:08:06;;;;;;;3.65;3.40;;;21.60;99.90;;;;;;4967628;28;20217;-66
2023/08/14 02:10:33;;;;;;;4.72;3.20;;;21.60;99.90;;;;;;4967881;28;20326;-67
2023/08/14 02:13:00;;;;;;;3.75;3.45;;;21.60;99.90;;;;;;4967630;28;20258;-66
2023/08/14 02:15:27;;;;;;;3.65;3.28;;;21.50;99.90;;;;;;4967519;28;20317;-66
2023/08/14 02:17:55;;;;;;;3.45;3.20;;;21.40;99.90;;;;;;4967874;28;20207;-66
2023/08/14 02:20:22;;;;;;;5.53;3.22;;;21.40;99.90;;;;;;4967515;28;20243;-66
2023/08/14 02:22:49;;;;;;;3.58;3.28;;;21.30;99.90;;;;;;4967362;28;20330;-65
2023/08/14 02:25:16;;;;;;;3.88;3.30;;;21.20;99.90;;;;;;4967683;28;20306;-65
2023/08/14 02:27:43;;;;;;;5.45;3.70;;;21.20;99.90;;;;;;4967162;28;20269;-66
2023/08/14 02:30:10;;;;;;;3.47;3.20;;;21.10;99.90;;;;;;4947070;28;20307;-65
2023/08/14 02:32:37;;;;;;;4.70;3.53;;;21.20;99.90;;;;;;4965084;28;20337;-65
2023/08/14 02:35:06;;;;;;;3.67;3.38;;;21.20;99.90;;;;;;4966170;28;20238;-65
2023/08/14 02:37:33;;;;;;;3.78;3.38;;;21.20;99.90;;;;;;4965965;28;20297;-66
2023/08/14 02:40:00;;;;;;;4.20;3.17;;;21.20;99.90;;;;;;4965725;28;20238;-67
2023/08/14 02:42:27;;;;;;;3.50;3.13;;;21.20;99.90;;;;;;4966052;28;20250;-65
2023/08/14 02:44:54;;;;;;;3.95;3.33;;;21.20;99.90;;;;;;4966056;28;20238;-65
2023/08/14 02:47:20;;;;;;;3.30;3.00;;;21.20;99.90;;;;;;4965718;28;20206;-65
2023/08/14 02:49:48;;;;;;;5.38;3.38;;;21.20;99.90;;;;;;4965980;28;20207;-65
2023/08/14 02:52:16;;;;;;;6.32;3.30;;;21.20;99.90;;;;;;4965371;28;20218;-65
2023/08/14 02:54:43;;;;;;;3.35;3.05;;;21.10;99.90;;;;;;4965771;28;20266;-65
2023/08/14 02:57:10;;;;;;;8.52;3.75;;;21.10;99.90;;;;;;4966126;28;20289;-65
2023/08/14 02:59:37;;;;;;;5.78;3.88;;;21.10;99.90;;;;;;4965738;28;20213;-65
2023/08/14 03:02:04;;;;;;;3.35;3.15;;;21.00;99.90;;;;;;4958562;28;20210;-66
2023/08/14 03:04:31;;;;;;;3.28;2.97;;;21.00;99.90;;;;;;4956110;28;20217;-66
2023/08/14 03:06:58;;;;;;;3.35;3.15;;;21.00;99.90;;;;;;4965023;28;20217;-66
2023/08/14 03:09:26;;;;;;;3.65;3.35;;;20.90;99.90;;;;;;4964806;28;20685;-66
2023/08/14 03:11:53;;;;;;;3.90;3.50;;;20.90;99.90;;;;;;4966581;28;20261;-66
2023/08/14 03:14:20;;;;;;;3.35;3.05;;;20.90;99.90;;;;;;4967012;28;20322;-66
2023/08/14 03:16:47;;;;;;;4.60;3.10;;;20.80;99.90;;;;;;4966328;28;20325;-66
2023/08/14 03:19:14;;;;;;;4.10;3.45;;;20.80;99.90;;;;;;4967006;28;20251;-66
2023/08/14 03:21:41;;;;;;;4.80;3.13;;;20.70;99.90;;;;;;4967143;28;20301;-66
2023/08/14 03:24:08;;;;;;;5.75;4.10;;;20.70;99.90;;;;;;4966328;28;20207;-66
2023/08/14 03:26:36;;;;;;;5.75;3.47;;;20.70;99.90;;;;;;4967076;28;20330;-66
2023/08/14 03:29:03;;;;;;;3.58;3.28;;;20.60;99.90;;;;;;4966906;28;20221;-66
2023/08/14 03:31:31;;;;;;;4.55;3.30;;;20.60;99.90;;;;;;4966523;28;20776;-66
2023/08/14 03:33:58;;;;;;;3.85;3.60;;;20.60;99.90;;;;;;4966986;28;20524;-66
2023/08/14 03:36:26;;;;;;;4.60;3.00;;;20.50;99.90;;;;;;4957665;28;20769;-66
2023/08/14 03:38:53;;;;;;;4.27;3.40;;;20.50;99.90;;;;;;4946749;28;20306;-66
2023/08/14 03:41:20;;;;;;;4.07;3.20;;;20.50;99.90;;;;;;4958646;28;20211;-66
2023/08/14 03:43:48;;;;;;;3.60;3.25;;;20.50;99.90;;;;;;4966670;28;20234;-66
2023/08/14 03:46:15;;;;;;;3.37;3.07;;;20.50;99.90;;;;;;4966395;28;20306;-66
2023/08/14 03:48:42;;;;;;;3.50;3.20;;;20.50;99.90;;;;;;4966276;28;20221;-66
2023/08/14 03:51:09;;;;;;;3.63;3.33;;;20.40;99.90;;;;;;4966926;28;20221;-65
2023/08/14 03:53:36;;;;;;;5.15;3.65;;;20.40;99.90;;;;;;4966509;28;20301;-66
2023/08/14 03:56:03;;;;;;;5.03;3.30;;;20.30;99.90;;;;;;4966648;28;20528;-65
2023/08/14 03:58:30;;;;;;;4.60;3.42;;;20.30;99.90;;;;;;4966607;28;20211;-66
2023/08/14 04:00:58;;;;;;;4.03;3.30;;;20.30;99.90;;;;;;4965976;28;20302;-65
2023/08/14 04:03:25;;;;;;;3.95;3.38;;;20.20;99.90;;;;;;4965962;28;20290;-66
2023/08/14 04:05:56;;;;;;;4.33;3.30;;;20.20;99.90;;;;;;4966381;28;20215;-66
2023/08/14 04:08:23;;;;;;;3.78;3.47;;;20.20;99.90;;;;;;4965851;28;20203;-66
2023/08/14 04:10:55;;;;;;;3.22;2.88;;;20.20;99.90;;;;;;4966081;28;20261;-66
2023/08/14 04:13:22;;;;;;;4.18;3.38;;;20.20;99.90;;;;;;4966482;28;20230;-66
2023/08/14 04:15:49;;;;;;;5.40;3.60;;;20.20;99.90;;;;;;4960172;28;20228;-66
2023/08/14 04:18:17;;;;;;;6.13;3.42;;;20.10;99.90;;;;;;4946289;28;20756;-65
2023/08/14 04:20:44;;;;;;;4.03;3.72;;;20.10;99.90;;;;;;4946553;28;20305;-65
2023/08/14 04:23:11;;;;;;;3.85;3.45;;;20.10;99.90;;;;;;4946395;28;20216;-66
2023/08/14 04:25:37;;;;;;;6.00;3.38;;;20.10;99.90;;;;;;4946552;28;20218;-66
2023/08/14 04:28:05;;;;;;;6.05;3.70;;;20.10;99.90;;;;;;4946701;28;20310;-66
2023/08/14 04:30:32;;;;;;;4.90;2.92;;;20.10;99.90;;;;;;4946282;28;20709;-66
2023/08/14 04:32:59;;;;;;;5.53;3.50;;;20.10;99.90;;;;;;4962120;28;20242;-66
2023/08/14 04:35:27;;;;;;;3.90;3.60;;;20.20;99.90;;;;;;4966679;28;20310;-66
2023/08/14 04:37:54;;;;;;;6.40;3.85;;;20.20;99.90;;;;;;4969809;28;20215;-66
2023/08/14 04:40:21;;;;;;;4.30;3.73;;;20.20;99.90;;;;;;4969179;28;20210;-66
2023/08/14 04:42:48;;;;;;;7.13;3.53;;;20.20;99.90;;;;;;4969446;28;20387;-66
2023/08/14 04:45:15;;;;;;;4.68;4.05;;;20.30;99.90;;;;;;4984858;28;20304;-66
2023/08/14 04:47:42;;;;;;;4.35;3.67;;;20.30;99.90;;;;;;4964288;28;20243;-66
2023/08/14 04:50:09;;;;;;;3.97;3.50;;;20.30;99.90;;;;;;4950308;28;20214;-66
2023/08/14 04:52:37;;;;;;;3.97;3.60;;;20.40;99.90;;;;;;4951413;28;20254;-66
2023/08/14 04:55:05;;;;;;;5.22;3.20;;;20.30;99.90;;;;;;4969239;28;20215;-66
2023/08/14 04:57:31;;;;;;;4.17;3.80;;;20.40;99.90;;;;;;4969322;28;20330;-66
2023/08/14 04:59:58;;;;;;;5.75;3.90;;;20.40;99.90;;;;;;4969735;28;20234;-66
2023/08/14 05:02:25;;;;;;;7.57;3.97;;;20.40;99.90;;;;;;4970304;28;20305;-65
2023/08/14 05:04:52;;;;;;;4.05;3.60;;;20.50;99.90;;;;;;4969711;28;20302;-66
2023/08/14 05:07:19;;;;;;;4.18;3.50;;;20.50;99.90;;;;;;4968242;28;20223;-66
2023/08/14 05:09:49;;;;;;;5.80;4.10;;;20.50;99.90;;;;;;4969456;28;20297;-65
2023/08/14 05:12:16;;;;;;;4.57;3.70;;;20.60;99.90;;;;;;4969069;28;20247;-66
2023/08/14 05:14:43;;;;;;;4.65;3.42;;;20.60;99.90;;;;;;4969328;28;20681;-66
2023/08/14 05:17:10;;;;;;;3.85;3.53;;;20.60;99.90;;;;;;4969002;28;20226;-66
2023/08/14 05:19:37;;;;;;;4.90;3.47;;;20.70;99.90;;;;;;4969699;28;20218;-66
2023/08/14 05:22:04;;;;;;;5.80;3.80;;;20.70;99.90;;;;;;4969615;28;20302;-66
2023/08/14 05:24:30;;;;;;;3.88;3.60;;;20.70;99.90;;;;;;4968531;28;20210;-66
2023/08/14 05:26:59;;;;;;;4.47;4.05;;;20.80;99.90;;;;;;4969338;28;20211;-66
2023/08/14 05:29:25;;;;;;;4.50;3.72;;;20.80;99.90;;;;;;4956786;28;20215;-66
2023/08/14 05:31:52;;;;;;;4.07;3.67;;;20.80;99.90;;;;;;4949939;28;20239;-66
2023/08/14 05:34:19;;;;;;;4.32;3.50;;;20.80;99.90;;;;;;4949804;28;20211;-65
2023/08/14 05:36:46;;;;;;;4.35;3.78;;;20.80;99.90;;;;;;4949731;28;20231;-66
2023/08/14 05:39:13;;;;;;;4.80;3.22;;;20.80;99.90;;;;;;4958951;28;20291;-66
2023/08/14 05:41:40;;;;;;;4.43;3.42;;;20.90;99.90;;;;;;4971065;28;20218;-66
2023/08/14 05:44:08;;;;;;;4.30;3.92;;;20.90;99.90;;;;;;4969198;28;20219;-65
2023/08/14 05:46:35;;;;;;;3.78;3.55;;;20.90;99.90;;;;;;4968099;28;20620;-66
2023/08/14 05:49:02;;;;;;;5.68;3.83;;;20.90;99.90;;;;;;4968345;28;20209;-65
2023/08/14 05:51:29;;;;;;;4.75;3.50;;;20.90;99.90;;;;;;4968574;28;20627;-66
2023/08/14 05:53:55;;;;;;;4.35;3.70;;;21.00;99.90;;;;;;4968445;28;20301;-66
2023/08/14 05:56:22;;;;;;;5.70;3.75;;;21.00;99.90;;;;;;4968630;28;20326;-65
2023/08/14 05:58:49;;;;;;;4.10;3.83;;;21.00;99.90;;;;;;4968619;28;20246;-66
2023/08/14 06:01:17;;;;;;;5.13;3.85;;;21.00;99.90;;;;;;4968340;28;20298;-65
2023/08/14 06:03:45;;;;;;;4.80;3.53;;;21.00;99.90;;;;;;4968211;28;20305;-66
2023/08/14 06:06:11;;;;;;;5.47;3.63;;;21.00;99.90;;;;;;4968480;28;20214;-66
2023/08/14 06:08:38;;;;;;;6.43;3.85;;;21.00;99.90;;;;;;4968302;28;20210;-65
2023/08/14 06:11:05;;;;;;;3.58;3.30;;;21.00;99.90;;;;;;4968262;28;20246;-65
2023/08/14 06:13:32;;;;;;;5.97;3.92;;;21.00;99.90;;;;;;4968805;28;20235;-65
2023/08/14 06:15:59;;;;;;;5.28;3.60;;;21.00;99.90;;;;;;4968384;28;20211;-65
2023/08/14 06:18:28;;;;;;;4.50;3.88;;;21.00;99.90;;;;;;4968196;28;20679;-65
2023/08/14 06:20:55;;;;;;;5.32;3.78;;;21.10;99.90;;;;;;4968706;28;20222;-65
2023/08/14 06:23:22;;;;;;;4.47;3.40;;;21.00;99.90;;;;;;4968179;28;20222;-65
2023/08/14 06:25:49;;;;;;;4.50;3.90;;;21.10;99.90;;;;;;4968111;28;20302;-66
2023/08/14 06:28:16;;;;;;;5.03;3.83;;;21.10;99.90;;;;;;4968385;28;20599;-65
2023/08/14 06:30:43;;;;;;;4.43;4.00;;;21.20;99.90;;;;;;4968481;28;20295;-65
2023/08/14 06:33:10;;;;;;;6.45;3.88;;;21.30;99.90;;;;;;4968179;28;20243;-65
2023/08/14 06:35:38;;;;;;;4.80;3.85;;;21.30;99.90;;;;;;4967862;28;20721;-65
2023/08/14 06:38:05;;;;;;;4.10;3.80;;;21.40;99.90;;;;;;4967543;28;20242;-65
2023/08/14 06:40:32;;;;;;;3.78;3.47;;;21.40;99.90;;;;;;4958054;28;20294;-66
2023/08/14 06:42:59;;;;;;;4.40;3.65;;;21.50;99.90;;;;;;4968088;28;20213;-65
2023/08/14 06:45:26;;;;;;;3.83;3.38;;;21.60;99.90;;;;;;4967575;28;20325;-65
2023/08/14 06:47:53;;;;;;;4.80;3.00;;;21.60;99.90;;;;;;4967842;28;20211;-65
2023/08/14 06:50:20;;;;;;;6.70;3.40;;;21.60;99.90;;;;;;4967330;28;20297;-65
2023/08/14 06:52:48;;;;;;;3.85;3.50;;;21.70;99.90;;;;;;4967218;28;20211;-65
2023/08/14 06:55:15;;;;;;;6.05;3.47;;;21.80;99.90;;;;;;4967462;28;20586;-65
2023/08/14 06:57:42;;;;;;;4.90;3.50;;;21.80;99.90;;;;;;4967529;28;20238;-65
2023/08/14 07:00:13;;;;;;;6.85;3.25;;;21.90;99.90;;;;;;4967636;28;20210;-65
2023/08/14 07:02:40;;;;;;;3.67;3.38;;;21.90;99.90;;;;;;4967454;28;20648;-65
2023/08/14 07:05:09;;;;;;;4.68;3.67;;;22.00;99.90;;;;;;4967351;28;20250;-65
2023/08/14 07:07:36;;;;;;;4.57;3.15;;;22.00;99.90;;;;;;4967814;28;20210;-65
2023/08/14 07:10:05;;;;;;;3.72;3.42;;;22.00;99.90;;;;;;4967830;28;20220;-66
2023/08/14 07:12:32;;;;;;;5.13;3.60;;;22.10;99.90;;;;;;4967473;28;20263;-65
2023/08/14 07:15:00;;;;;;;6.30;3.22;;;22.00;99.90;;;;;;4967498;28;20207;-65
2023/08/14 07:17:27;;;;;;;4.60;3.13;;;22.10;99.90;;;;;;4947938;28;20239;-65
2023/08/14 07:19:54;;;;;;;4.18;2.95;;;22.10;99.90;;;;;;4949057;28;20211;-65
2023/08/14 07:22:21;;;;;;;5.43;3.55;;;22.20;99.90;;;;;;4967010;28;20334;-65
2023/08/14 07:24:48;;;;;;;4.95;3.60;;;22.20;99.90;;;;;;4967218;28;20207;-65
2023/08/14 07:27:16;;;;;;;3.47;3.20;;;22.30;99.90;;;;;;4967040;28;20278;-65
2023/08/14 07:29:44;;;;;;;4.72;3.42;;;22.30;99.90;;;;;;4967069;28;20214;-65
2023/08/14 07:32:10;;;;;;;5.05;3.40;;;22.30;99.90;;;;;;4966464;28;20239;-65
2023/08/14 07:34:37;;;;;;;4.30;2.90;;;22.30;99.90;;;;;;4967041;28;20211;-65
2023/08/14 07:37:04;;;;;;;4.72;3.05;;;22.40;99.90;;;;;;4966877;28;20230;-65
2023/08/14 07:39:31;;;;;;;5.25;3.50;;;22.40;99.90;;;;;;4966673;28;20317;-65
2023/08/14 07:41:58;;;;;;;5.43;3.20;;;22.40;99.90;;;;;;4956337;28;20207;-65
2023/08/14 07:44:27;;;;;;;4.65;2.88;;;22.40;99.90;;;;;;4966929;28;20219;-65
2023/08/14 07:46:53;;;;;;;6.63;3.47;;;22.40;99.90;;;;;;4966991;28;20210;-65
2023/08/14 07:49:20;;;;;;;3.08;2.78;;;22.50;99.90;;;;;;4966925;28;20316;-65
2023/08/14 07:51:47;;;;;;;5.07;3.17;;;22.50;99.90;;;;;;4966725;28;20301;-65
2023/08/14 07:54:14;;;;;;;3.30;2.97;;;22.60;99.90;;;;;;4965901;28;20302;-65
2023/08/14 07:56:41;;;;;;;5.50;3.10;;;22.60;99.90;;;;;;4965912;28;20713;-65
2023/08/14 07:59:08;;;;;;;4.28;2.95;;;22.60;99.90;;;;;;4966446;28;20221;-65
2023/08/14 08:01:36;;;;;;;5.35;3.03;;;22.70;99.90;;;;;;4966545;28;20294;-65
2023/08/14 08:04:04;;;;;;;5.20;2.97;;;22.70;99.90;;;;;;4966558;28;20218;-65
2023/08/14 08:06:31;;;;;;;3.13;2.35;;;22.70;99.90;;;;;;4966495;28;20293;-65
2023/08/14 08:08:57;;;;;;;4.68;2.83;;;22.70;99.90;;;;;;4966017;28;20310;-65
2023/08/14 08:11:24;;;;;;;4.70;2.45;;;22.70;99.90;;;;;;4965475;28;20217;-66
2023/08/14 08:13:51;;;;;;;3.75;3.33;;;22.70;99.90;;;;;;4966397;28;20211;-65
2023/08/14 08:16:18;;;;;;;4.20;2.63;;;22.80;99.90;;;;;;4965704;28;20325;-65
2023/08/14 08:18:46;;;;;;;3.72;2.80;;;22.80;99.90;;;;;;4965701;28;20241;-65
2023/08/14 08:21:13;;;;;;;4.60;2.80;;;22.90;99.90;;;;;;4965808;28;20644;-65
2023/08/14 08:23:40;;;;;;;4.32;2.92;;;22.90;99.90;;;;;;4965614;28;20218;-65
2023/08/14 08:26:07;;;;;;;4.32;2.50;;;23.10;99.90;;;;;;4965470;28;20301;-65
2023/08/14 08:28:34;;;;;;;4.53;2.42;;;23.10;99.90;;;;;;4965779;28;20219;-65
2023/08/14 08:31:01;;;;;;;3.83;2.88;;;23.10;99.90;;;;;;4966083;28;20301;-65
2023/08/14 08:33:28;;;;;;;5.07;2.85;;;23.20;99.90;;;;;;4947048;28;20613;-65
2023/08/14 08:35:56;;;;;;;4.57;2.35;;;23.30;99.90;;;;;;4946456;28;20310;-65
2023/08/14 08:38:24;;;;;;;4.45;2.95;;;23.30;99.90;;;;;;4953445;28;20893;-65
2023/08/14 08:40:51;;;;;;;2.65;2.45;;;23.40;99.90;;;;;;4957969;28;20225;-65
2023/08/14 08:43:20;;;;;;;4.68;2.50;;;23.40;99.90;;;;;;4946493;28;20263;-65
2023/08/14 08:45:50;;;;;;;2.70;2.50;;;23.50;99.90;;;;;;4946218;28;20639;-65
2023/08/14 08:48:19;;;;;;;3.05;2.28;;;23.60;99.90;;;;;;4946843;28;20251;-65
2023/08/14 08:50:47;;;;;;;3.08;2.08;;;23.60;99.90;;;;;;4946423;28;21184;-65
2023/08/14 08:53:16;;;;;;;2.42;2.22;;;23.60;99.90;;;;;;4946670;28;20208;-65
2023/08/14 08:55:44;;;;;;;3.38;1.90;;;23.70;99.90;;;;;;4947145;28;20238;-65
2023/08/14 08:58:13;;;;;;;3.55;2.08;;;23.70;99.90;;;;;;4946348;28;20235;-65
2023/08/14 09:00:40;;;;;;;2.55;2.35;;;23.80;99.90;;;;;;4946641;28;21004;-65
2023/08/14 09:03:07;;;;;;;2.78;2.22;;;23.80;99.90;;;;;;4946990;28;20343;-65
2023/08/14 09:05:35;;;;;;;2.70;1.95;;;23.90;99.90;;;;;;4946850;28;20307;-65
2023/08/14 09:08:02;;;;;;;2.08;1.98;;;23.90;99.90;;;;;;4946895;28;20219;-65
2023/08/14 09:10:31;;;;;;;2.85;2.13;;;24.00;99.90;;;;;;4951435;28;20657;-65
2023/08/14 09:12:58;;;;;;;3.45;2.05;;;24.10;99.90;;;;;;4965606;28;20223;-65
2023/08/14 09:15:25;;;;;;;2.65;2.10;;;24.10;99.90;;;;;;4965543;28;20257;-65
2023/08/14 09:17:52;;;;;;;4.00;2.20;;;24.20;99.90;;;;;;4965494;28;20346;-65
2023/08/14 09:20:19;;;;;;;3.08;2.45;;;24.30;99.90;;;;;;4965953;28;20206;-65
2023/08/14 09:22:46;;;;;;;3.05;2.20;;;24.30;99.90;;;;;;4966996;28;20708;-65
2023/08/14 09:25:15;;;;;;;2.42;2.33;;;24.30;99.90;;;;;;4968959;28;20238;-66
2023/08/14 09:27:44;;;;;;;3.33;2.35;;;24.40;99.90;;;;;;4968954;28;20615;-65
2023/08/14 09:30:13;;;;;;;3.08;2.40;;;24.50;99.90;;;;;;4968977;28;20943;-65
2023/08/14 09:32:40;;;;;;;4.07;2.30;;;24.60;99.90;;;;;;4969050;28;20712;-65
2023/08/14 09:35:07;;;;;;;2.63;2.40;;;24.60;99.90;;;;;;4969143;28;20570;-65
2023/08/14 09:37:35;;;;;;;3.92;2.22;;;24.60;99.90;;;;;;4968768;28;20766;-66
2023/08/14 09:40:16;;;;;;;2.50;2.30;;;24.60;99.90;;;;;;4968981;28;20207;-65
2023/08/14 09:42:46;;;;;;;3.47;2.40;;;24.70;99.90;;;;;;4969337;28;20238;-66
2023/08/14 09:45:14;;;;;;;3.42;2.08;;;24.80;99.90;;;;;;4969030;28;20211;-65
2023/08/14 09:47:43;;;;;;;3.55;2.20;;;24.90;99.90;;;;;;4968543;28;20222;-65
2023/08/14 09:50:11;;;;;;;4.05;2.25;;;25.00;99.90;;;;;;4968805;28;20213;-65
2023/08/14 09:52:38;;;;;;;3.05;2.00;;;25.00;99.90;;;;;;4968247;28;20210;-65
2023/08/14 09:55:06;;;;;;;4.30;2.30;;;25.10;99.90;;;;;;4968425;28;20210;-65
2023/08/14 09:57:34;;;;;;;2.53;2.33;;;25.20;99.90;;;;;;4968260;28;20245;-65
2023/08/14 10:00:03;;;;;;;2.88;2.20;;;25.20;99.90;;;;;;4968412;28;20211;-65
2023/08/14 10:02:32;;;;;;;3.63;2.22;;;25.30;99.90;;;;;;4968359;28;20358;-65
2023/08/14 10:05:01;;;;;;;2.10;1.90;;;25.30;99.90;;;;;;4968467;28;20206;-65
2023/08/14 10:07:28;;;;;;;4.05;1.90;;;25.50;99.90;;;;;;4968176;28;20242;-65
2023/08/14 10:10:01;;;;;;;3.47;2.55;;;25.60;99.90;;;;;;4967958;28;20554;-65
2023/08/14 10:12:32;;;;;;;2.20;2.00;;;25.60;99.90;;;;;;4968485;28;20231;-65
2023/08/14 10:15:05;;;;;;;2.85;1.88;;;25.60;99.90;;;;;;4968764;28;20210;-66
2023/08/14 10:17:35;;;;;;;3.97;1.90;;;25.80;99.90;;;;;;4968071;28;20699;-65
2023/08/14 10:20:05;;;;;;;2.40;2.10;;;26.10;99.90;;;;;;4968473;28;20235;-66
2023/08/14 10:22:34;;;;;;;2.13;1.98;;;26.30;99.90;;;;;;4981529;28;20261;-65
2023/08/14 10:25:04;;;;;;;3.03;1.90;;;26.30;99.90;;;;;;4966208;28;20208;-66
2023/08/14 10:27:31;;;;;;;2.40;2.00;;;26.40;99.90;;;;;;4948605;28;20216;-65
2023/08/14 10:29:59;;;;;;;3.95;2.13;;;26.40;99.90;;;;;;4948695;28;20222;-66
2023/08/14 10:32:28;;;;;;;3.70;2.22;;;26.40;99.90;;;;;;4967770;28;20269;-66
2023/08/14 10:34:55;;;;;;;2.72;2.08;;;26.60;99.90;;;;;;4967982;28;20217;-66
2023/08/14 10:37:27;;;;;;;2.45;2.25;;;26.80;99.90;;;;;;4967636;28;20214;-66
2023/08/14 10:39:58;;;;;;;2.70;2.10;;;26.90;99.90;;;;;;4967529;28;20211;-65
2023/08/14 10:42:25;;;;;;;4.22;1.85;;;27.00;99.90;;;;;;4948602;28;20200;-65
2023/08/14 10:44:52;;;;;;;3.58;2.15;;;27.10;99.90;;;;;;4948507;28;20781;-65
2023/08/14 10:47:19;;;;;;;2.50;2.10;;;27.10;99.90;;;;;;4948403;28;20322;-66
2023/08/14 10:49:50;;;;;;;2.70;2.08;;;27.20;99.90;;;;;;4948515;28;20662;-66
2023/08/14 10:52:19;;;;;;;1.73;1.63;;;27.30;99.90;;;;;;4948349;28;20319;-65
2023/08/14 10:54:50;;;;;;;2.35;1.80;;;27.40;99.90;;;;;;4948454;28;20243;-66
2023/08/14 10:57:17;;;;;;;2.85;2.00;;;27.40;99.90;;;;;;4948133;28;20291;-65
2023/08/14 10:59:55;;;;;;;1.90;1.80;;;27.50;99.90;;;;;;4948462;28;20312;-65
2023/08/14 11:02:24;;;;;;;2.10;1.98;;;27.60;99.90;;;;;;4948194;28;20400;-65
2023/08/14 11:05:00;;;;;;;2.83;2.10;;;27.60;99.90;;;;;;4948109;28;20212;-66
2023/08/14 11:07:29;;;;;;;2.03;1.85;;;27.70;99.90;;;;;;4963630;28;20215;-66
2023/08/14 11:09:57;;;;;;;3.45;2.13;;;27.80;99.90;;;;;;4967316;28;20323;-66
2023/08/14 11:12:23;;;;;;;3.83;2.00;;;27.90;99.90;;;;;;4967472;28;20226;-65
2023/08/14 11:14:51;;;;;;;2.70;2.10;;;28.00;99.90;;;;;;4967493;28;20214;-65
2023/08/14 11:17:17;;;;;;;2.90;2.10;;;28.10;99.90;;;;;;4968343;28;20211;-66
2023/08/14 11:19:44;;;;;;;2.35;2.15;;;28.10;99.90;;;;;;4986722;28;20214;-66
2023/08/14 11:22:13;;;;;;;2.35;2.15;;;28.30;99.90;;;;;;4968306;28;20257;-66
2023/08/14 11:24:40;;;;;;;2.05;1.85;;;28.40;99.90;;;;;;4967019;28;20215;-66
2023/08/14 11:27:07;;;;;;;2.10;1.85;;;28.50;99.90;;;;;;4966907;28;20628;-66
2023/08/14 11:29:35;;;;;;;2.05;1.95;;;28.60;99.90;;;;;;4966894;28;20214;-66
2023/08/14 11:32:02;;;;;;;2.08;1.98;;;28.70;99.90;;;;;;4966883;28;20744;-66
2023/08/14 11:34:32;;;;;;;5.63;2.45;;;28.80;99.90;;;;;;4967152;28;20297;-66
2023/08/14 11:37:00;;;;;;;2.65;2.00;;;28.80;99.90;;;;;;4966860;28;20215;-66
2023/08/14 11:39:29;;;;;;;2.00;1.90;;;29.00;99.90;;;;;;4966407;28;20282;-66
2023/08/14 11:41:56;;;;;;;2.25;1.85;;;29.10;99.90;;;;;;4966714;28;20302;-66
2023/08/14 11:44:23;;;;;;;2.08;1.98;;;29.20;99.90;;;;;;4966101;28;20297;-66
2023/08/14 11:46:50;;;;;;;1.77;1.67;;;29.20;99.90;;;;;;4966326;28;20301;-66
2023/08/14 11:49:18;;;;;;;2.50;2.10;;;29.30;99.90;;;;;;4966470;28;20210;-66
2023/08/14 11:51:46;;;;;;;4.82;2.10;;;29.40;99.90;;;;;;4967168;28;20821;-66
2023/08/14 11:54:13;;;;;;;1.95;1.63;;;29.40;99.90;;;;;;4966812;28;20218;-66
2023/08/14 11:56:42;;;;;;;2.15;1.95;;;29.60;99.90;;;;;;4966492;28;20207;-66
2023/08/14 11:59:09;;;;;;;2.22;2.10;;;29.60;99.90;;;;;;4966532;28;20784;-67
2023/08/14 12:01:38;;;;;;;1.92;1.83;;;29.70;99.90;;;;;;4966690;28;20210;-66
2023/08/14 12:04:06;;;;;;;2.85;2.05;;;29.70;99.90;;;;;;4966641;28;20212;-66
2023/08/14 12:06:34;;;;;;;2.30;2.10;;;29.80;99.90;;;;;;4966442;28;20214;-67
2023/08/14 12:09:02;;;;;;;3.05;2.35;;;29.80;99.90;;;;;;4966561;28;20429;-66
2023/08/14 12:11:29;;;;;;;3.05;1.90;;;29.90;99.90;;;;;;4966040;28;20229;-66
2023/08/14 12:13:57;;;;;;;2.00;1.90;;;30.00;99.90;;;;;;4966348;28;20745;-66
2023/08/14 12:16:24;;;;;;;1.90;1.80;;;30.20;99.90;;;;;;4957302;28;20294;-66
2023/08/14 12:18:51;;;;;;;2.17;1.98;;;30.20;99.90;;;;;;4966341;28;20974;-66
2023/08/14 12:21:18;;;;;;;4.00;2.35;;;30.30;99.90;;;;;;4966319;28;20218;-66
2023/08/14 12:23:49;;;;;;;3.78;2.10;;;30.50;99.90;;;;;;4965937;28;20210;-66
2023/08/14 12:26:16;;;;;;;2.05;1.83;;;30.60;99.90;;;;;;4965482;28;20195;-66
2023/08/14 12:28:43;;;;;;;3.13;2.08;;;30.70;99.90;;;;;;4966306;28;20207;-66
2023/08/14 12:31:13;;;;;;;9.30;2.70;;;30.80;99.90;;;;;;4965961;28;20249;-66
2023/08/14 12:33:41;;;;;;;1.95;1.83;;;31.00;99.80;;;;;;4966441;28;20238;-66
2023/08/14 12:36:10;;;;;;;2.85;2.13;;;31.10;99.80;;;;;;4966524;28;20218;-66
2023/08/14 12:38:37;;;;;;;2.20;2.00;;;31.20;99.90;;;;;;4966229;28;20234;-66
2023/08/14 12:41:04;;;;;;;4.38;1.88;;;31.20;99.10;;;;;;4966459;28;20215;-66
2023/08/14 12:43:31;;;;;;;3.83;2.17;;;31.20;99.20;;;;;;4966561;28;20210;-66
2023/08/14 12:45:59;;;;;;;2.75;2.10;;;31.10;99.30;;;;;;4966791;28;20302;-66
2023/08/14 12:48:27;;;;;;;2.78;2.25;;;30.90;99.90;;;;;;4966262;28;20253;-66
2023/08/14 12:50:54;;;;;;;2.85;2.47;;;30.90;98.90;;;;;;4966221;28;20234;-66